Time;durP1;ratioP1;P1;durP2;ratioP2;P2;SDS_P1;SDS_P2;PMS_P1;PMS_P2;Temp;Humidity;BMP_temperature;BMP_pressure;BME280_temperature;BME280_humidity;BME280_pressure;Samples;Min_cycle;Max_cycle;Signal;HPM_P1;HPM_P2
2022/06/30 00:01:34;;;;;;;6.82;6.20;;;19.30;99.90;;;;;;5047067;28;20042;-79
2022/06/30 00:04:00;;;;;;;7.30;5.63;;;19.20;99.90;;;;;;5023757;28;20045;-79
2022/06/30 00:06:26;;;;;;;7.30;6.38;;;19.20;99.90;;;;;;5019494;28;20501;-79
2022/06/30 00:08:52;;;;;;;8.00;6.30;;;19.10;99.90;;;;;;5022682;28;20055;-79
2022/06/30 00:11:21;;;;;;;7.68;6.10;;;19.10;99.90;;;;;;4995746;28;20066;-79
2022/06/30 00:13:48;;;;;;;6.78;6.10;;;19.00;99.90;;;;;;5029921;28;20041;-79
2022/06/30 00:16:13;;;;;;;8.13;6.45;;;19.00;99.90;;;;;;5044701;28;20048;-79
2022/06/30 00:18:39;;;;;;;8.13;6.70;;;18.90;99.90;;;;;;5040677;28;20038;-79
2022/06/30 00:21:05;;;;;;;9.63;6.40;;;18.80;99.90;;;;;;5045738;28;20091;-79
2022/06/30 00:23:31;;;;;;;7.35;6.65;;;18.80;99.90;;;;;;5011698;28;20550;-78
2022/06/30 00:25:57;;;;;;;7.95;7.15;;;18.70;99.90;;;;;;4994797;28;20041;-78
2022/06/30 00:28:23;;;;;;;9.63;6.35;;;18.70;99.90;;;;;;5011170;28;20033;-79
2022/06/30 00:30:50;;;;;;;8.45;6.03;;;18.60;99.90;;;;;;5036436;28;20511;-79
2022/06/30 00:33:16;;;;;;;8.23;6.40;;;18.60;99.90;;;;;;5027406;28;20069;-79
2022/06/30 00:35:43;;;;;;;7.45;6.80;;;18.50;99.90;;;;;;5010798;28;20117;-79
2022/06/30 00:38:09;;;;;;;6.80;6.18;;;18.40;99.90;;;;;;5028208;28;20053;-79
2022/06/30 00:40:40;;;;;;;7.82;6.72;;;18.40;99.90;;;;;;5025784;28;20049;-79
2022/06/30 00:43:06;;;;;;;9.63;6.10;;;18.40;99.90;;;;;;5025577;28;20117;-78
2022/06/30 00:45:32;;;;;;;9.35;6.47;;;18.30;99.90;;;;;;5025768;28;20128;-79
2022/06/30 00:47:59;;;;;;;7.15;6.45;;;18.30;99.90;;;;;;5036459;28;20095;-79
2022/06/30 00:50:26;;;;;;;7.30;6.60;;;18.20;99.90;;;;;;5029324;28;20049;-79
2022/06/30 00:52:52;;;;;;;7.53;6.72;;;18.20;99.90;;;;;;5029151;28;20041;-79
2022/06/30 00:55:19;;;;;;;8.43;5.90;;;18.20;99.90;;;;;;5025632;28;20079;-79
2022/06/30 00:57:45;;;;;;;9.52;6.10;;;18.20;99.90;;;;;;5011826;28;20148;-78
2022/06/30 01:00:15;;;;;;;6.63;5.90;;;18.20;99.90;;;;;;5038297;28;20041;-78
2022/06/30 01:02:42;;;;;;;6.63;6.03;;;18.10;99.90;;;;;;5011727;28;20052;-79
2022/06/30 01:05:08;;;;;;;6.47;5.88;;;18.10;99.90;;;;;;5014343;28;20120;-79
2022/06/30 01:07:34;;;;;;;9.05;6.13;;;18.10;99.90;;;;;;5031188;28;20041;-79
2022/06/30 01:12:47;;;;;;;9.30;5.75;;;18.00;99.90;;;;;;5028184;28;20038;-79
2022/06/30 01:15:18;;;;;;;9.90;5.95;;;18.00;99.90;;;;;;5011339;28;20126;-79
2022/06/30 01:17:45;;;;;;;9.68;6.07;;;18.00;99.90;;;;;;5017545;28;20045;-79
2022/06/30 01:20:12;;;;;;;6.07;5.10;;;18.00;99.90;;;;;;5000481;28;20038;-79
2022/06/30 01:22:38;;;;;;;6.85;5.60;;;18.10;99.90;;;;;;5018754;28;20037;-79
2022/06/30 01:25:06;;;;;;;7.70;5.53;;;18.10;99.90;;;;;;5014074;28;20299;-78
2022/06/30 01:27:31;;;;;;;7.80;5.30;;;18.10;99.90;;;;;;5030902;28;20124;-78
2022/06/30 01:29:58;;;;;;;5.68;5.10;;;18.10;99.90;;;;;;5011443;28;20105;-78
2022/06/30 01:32:25;;;;;;;6.88;5.82;;;18.10;99.90;;;;;;5020695;28;20045;-78
2022/06/30 01:34:52;;;;;;;8.45;5.07;;;18.10;99.90;;;;;;5012918;28;20049;-78
2022/06/30 01:37:18;;;;;;;6.43;5.03;;;18.10;99.90;;;;;;5022521;28;20041;-78
2022/06/30 01:39:44;;;;;;;6.93;5.20;;;18.10;99.90;;;;;;5011171;28;20459;-79
2022/06/30 01:42:10;;;;;;;8.05;4.97;;;18.10;99.90;;;;;;5009180;28;20179;-79
2022/06/30 01:44:36;;;;;;;6.60;5.25;;;18.10;99.90;;;;;;5007199;28;20659;-78
2022/06/30 01:47:02;;;;;;;7.55;5.32;;;18.10;99.90;;;;;;5035575;28;20029;-78
2022/06/30 01:49:28;;;;;;;6.63;5.68;;;18.00;99.90;;;;;;5038271;28;20033;-78
2022/06/30 01:51:54;;;;;;;8.18;6.15;;;18.00;99.90;;;;;;5031999;28;20062;-78
2022/06/30 01:54:21;;;;;;;6.50;5.90;;;18.00;99.90;;;;;;5008184;28;20038;-78
2022/06/30 01:56:47;;;;;;;15.93;7.13;;;18.00;99.90;;;;;;5013092;28;20414;-78
2022/06/30 01:59:13;;;;;;;6.60;5.90;;;18.00;99.90;;;;;;5039051;28;20087;-78
2022/06/30 02:01:39;;;;;;;7.03;5.45;;;18.00;99.90;;;;;;5022314;28;20048;-78
2022/06/30 02:06:50;;;;;;;5.90;5.20;;;18.00;99.90;;;;;;5024757;28;20430;-78
2022/06/30 02:09:16;;;;;;;9.73;5.95;;;18.00;99.90;;;;;;5010504;28;20029;-78
2022/06/30 02:11:42;;;;;;;6.07;5.45;;;17.90;99.90;;;;;;5020790;28;20033;-78
2022/06/30 02:14:07;;;;;;;6.13;5.53;;;17.90;99.90;;;;;;5019392;28;20491;-78
2022/06/30 02:16:33;;;;;;;6.72;5.60;;;17.90;99.90;;;;;;5010780;28;20034;-78
2022/06/30 02:18:59;;;;;;;8.20;5.38;;;17.90;99.90;;;;;;5028081;28;20034;-78
2022/06/30 02:21:24;;;;;;;6.90;5.30;;;17.90;99.90;;;;;;5000739;28;20045;-78
2022/06/30 02:23:53;;;;;;;8.43;5.40;;;17.80;99.90;;;;;;5006304;28;20033;-78
2022/06/30 02:26:19;;;;;;;7.25;5.82;;;17.80;99.90;;;;;;5009035;28;20068;-78
2022/06/30 02:28:45;;;;;;;8.52;5.95;;;17.80;99.90;;;;;;5011042;28;20132;-78
2022/06/30 02:31:12;;;;;;;6.75;5.45;;;17.80;99.90;;;;;;5010141;28;20116;-78
2022/06/30 02:33:41;;;;;;;6.80;5.55;;;17.80;99.90;;;;;;5007017;28;20041;-78
2022/06/30 02:36:07;;;;;;;7.68;5.88;;;17.80;99.90;;;;;;5015773;28;20048;-78
2022/06/30 02:38:34;;;;;;;11.35;6.13;;;17.70;99.90;;;;;;5008918;28;20049;-78
2022/06/30 02:41:00;;;;;;;6.18;5.57;;;17.70;99.90;;;;;;5011385;28;20041;-78
2022/06/30 02:43:26;;;;;;;6.55;5.40;;;17.70;99.90;;;;;;5027052;28;20117;-78
2022/06/30 02:45:51;;;;;;;6.75;5.82;;;17.70;99.90;;;;;;5025691;28;20100;-78
2022/06/30 02:48:18;;;;;;;6.60;5.90;;;17.60;99.90;;;;;;5010036;28;20040;-78
2022/06/30 02:50:44;;;;;;;9.65;5.95;;;17.60;99.90;;;;;;4985572;28;20064;-77
2022/06/30 02:53:11;;;;;;;9.80;5.90;;;17.60;99.90;;;;;;5011515;28;20088;-78
2022/06/30 02:55:37;;;;;;;6.93;6.00;;;17.50;99.90;;;;;;5007531;28;20530;-78
2022/06/30 02:58:03;;;;;;;8.43;6.05;;;17.50;99.90;;;;;;5037477;28;20050;-78
2022/06/30 03:00:29;;;;;;;7.75;6.20;;;17.50;99.90;;;;;;4989272;28;20106;-77
2022/06/30 03:02:57;;;;;;;6.25;5.65;;;17.40;99.90;;;;;;5024918;28;20037;-78
2022/06/30 03:05:23;;;;;;;8.98;5.97;;;17.40;99.90;;;;;;5016976;28;20116;-78
2022/06/30 03:07:49;;;;;;;7.80;5.70;;;17.40;99.90;;;;;;5004630;28;20045;-77
2022/06/30 03:10:14;;;;;;;6.03;5.43;;;17.30;99.90;;;;;;5008386;28;20038;-77
2022/06/30 03:12:40;;;;;;;8.98;5.70;;;17.30;99.90;;;;;;5006368;28;20040;-78
2022/06/30 03:15:07;;;;;;;6.47;5.43;;;17.30;99.90;;;;;;5020828;28;20049;-78
2022/06/30 03:17:33;;;;;;;7.85;5.60;;;17.30;99.90;;;;;;5025249;28;20069;-78
2022/06/30 03:19:59;;;;;;;6.70;5.78;;;17.20;99.90;;;;;;4999907;28;20124;-78
2022/06/30 03:22:25;;;;;;;6.65;5.75;;;17.20;99.90;;;;;;5010267;28;20558;-78
2022/06/30 03:24:51;;;;;;;7.63;5.95;;;17.10;99.90;;;;;;5009795;28;20502;-78
2022/06/30 03:27:16;;;;;;;10.15;5.90;;;17.10;99.90;;;;;;5039124;28;20040;-78
2022/06/30 03:29:42;;;;;;;6.70;6.00;;;17.10;99.90;;;;;;5006902;28;20495;-78
2022/06/30 03:32:08;;;;;;;6.90;5.75;;;17.10;99.90;;;;;;5008226;28;20060;-78
2022/06/30 03:34:34;;;;;;;6.65;5.47;;;17.10;99.90;;;;;;5008675;28;20096;-78
2022/06/30 03:37:00;;;;;;;6.97;5.32;;;17.10;99.90;;;;;;5025136;28;20112;-78
2022/06/30 03:39:26;;;;;;;7.97;5.78;;;17.00;99.90;;;;;;5010045;28;20083;-78
2022/06/30 03:41:51;;;;;;;6.50;5.80;;;17.00;99.90;;;;;;5009616;28;20437;-78
2022/06/30 03:44:17;;;;;;;7.10;5.85;;;17.00;99.90;;;;;;5007890;28;20060;-78
2022/06/30 03:46:43;;;;;;;8.38;5.70;;;17.00;99.90;;;;;;5009687;28;20160;-78
2022/06/30 03:49:08;;;;;;;7.13;6.43;;;17.00;99.90;;;;;;5017903;28;20041;-78
2022/06/30 03:51:34;;;;;;;7.82;6.00;;;17.00;99.90;;;;;;5034890;28;20080;-78
2022/06/30 03:54:00;;;;;;;7.13;6.07;;;17.00;99.90;;;;;;5024572;28;20037;-77
2022/06/30 03:56:26;;;;;;;8.00;6.40;;;16.90;99.90;;;;;;5014994;28;20091;-77
2022/06/30 03:58:52;;;;;;;7.70;6.00;;;16.90;99.90;;;;;;5019943;28;20060;-77
2022/06/30 04:01:18;;;;;;;7.78;6.57;;;16.90;99.90;;;;;;5034600;28;20037;-77
2022/06/30 04:03:44;;;;;;;8.50;6.82;;;16.90;99.90;;;;;;5036009;28;20050;-77
2022/06/30 04:06:10;;;;;;;8.15;6.32;;;16.90;99.90;;;;;;5007022;28;20520;-77
2022/06/30 04:08:35;;;;;;;7.70;6.50;;;16.80;99.90;;;;;;5000933;28;20205;-77
2022/06/30 04:11:01;;;;;;;7.45;6.68;;;16.80;99.90;;;;;;5027460;28;20068;-77
2022/06/30 04:13:27;;;;;;;7.38;6.68;;;16.80;99.90;;;;;;5015400;28;20038;-77
2022/06/30 04:15:55;;;;;;;8.65;6.95;;;16.80;99.90;;;;;;5010490;28;20041;-77
2022/06/30 04:18:21;;;;;;;7.10;6.22;;;16.80;99.90;;;;;;5034085;28;20061;-77
2022/06/30 04:20:46;;;;;;;8.35;6.10;;;16.80;99.90;;;;;;5012756;28;20049;-77
2022/06/30 04:23:12;;;;;;;8.07;6.40;;;16.80;99.90;;;;;;4980114;28;20045;-77
2022/06/30 04:25:38;;;;;;;7.82;6.28;;;16.80;99.90;;;;;;5004319;28;20167;-77
2022/06/30 04:28:04;;;;;;;7.60;6.03;;;16.90;99.90;;;;;;5012440;28;20048;-77
2022/06/30 04:33:14;;;;;;;8.73;6.68;;;16.90;99.90;;;;;;5040215;28;20078;-77
2022/06/30 04:35:40;;;;;;;6.55;5.95;;;16.90;99.90;;;;;;5027521;28;20352;-77
2022/06/30 04:38:06;;;;;;;8.02;6.13;;;16.90;99.90;;;;;;5028597;28;20088;-77
2022/06/30 04:43:16;;;;;;;7.43;6.72;;;17.00;99.90;;;;;;5014140;28;20510;-77
2022/06/30 04:45:42;;;;;;;7.70;6.85;;;17.00;99.90;;;;;;5022514;28;20042;-77
2022/06/30 04:48:08;;;;;;;19.60;6.15;;;17.00;99.90;;;;;;5007604;28;20745;-77
2022/06/30 04:50:34;;;;;;;8.00;6.05;;;17.00;99.90;;;;;;5038074;28;20048;-77
2022/06/30 04:53:00;;;;;;;6.28;5.68;;;17.10;99.90;;;;;;5015151;28;20582;-77
2022/06/30 04:55:25;;;;;;;7.35;6.22;;;17.10;99.90;;;;;;5016066;28;20049;-77
2022/06/30 04:57:51;;;;;;;7.32;6.25;;;17.10;99.90;;;;;;5005114;28;20034;-77
2022/06/30 05:00:17;;;;;;;9.30;6.55;;;17.20;99.90;;;;;;5018150;28;20034;-77
2022/06/30 05:02:43;;;;;;;7.45;6.40;;;17.20;99.90;;;;;;5023941;28;20036;-77
2022/06/30 05:05:09;;;;;;;7.13;6.43;;;17.30;99.90;;;;;;5026752;28;20041;-77
2022/06/30 05:07:35;;;;;;;7.55;6.60;;;17.30;99.90;;;;;;4996980;28;20037;-77
2022/06/30 05:10:02;;;;;;;7.22;6.50;;;17.30;99.90;;;;;;5030053;28;20434;-77
2022/06/30 05:12:28;;;;;;;8.43;6.88;;;17.40;99.90;;;;;;5051738;28;20041;-77
2022/06/30 05:14:53;;;;;;;7.95;6.40;;;17.40;99.90;;;;;;5028512;28;20048;-77
2022/06/30 05:17:19;;;;;;;7.13;6.43;;;17.40;99.90;;;;;;4994332;28;20095;-77
2022/06/30 05:19:45;;;;;;;6.45;5.85;;;17.40;99.90;;;;;;5060714;28;20095;-77
2022/06/30 05:22:10;;;;;;;9.88;6.78;;;17.50;99.90;;;;;;5005540;28;20128;-77
2022/06/30 05:27:20;;;;;;;7.70;6.75;;;17.50;99.90;;;;;;4993484;28;20522;-77
2022/06/30 05:29:46;;;;;;;9.52;7.18;;;17.50;99.90;;;;;;5010943;28;20114;-77
2022/06/30 05:32:12;;;;;;;9.50;6.85;;;17.60;99.90;;;;;;5009736;28;20133;-77
2022/06/30 05:34:38;;;;;;;8.35;6.30;;;17.60;99.90;;;;;;5016892;28;20129;-77
2022/06/30 05:37:04;;;;;;;8.43;7.43;;;17.70;99.90;;;;;;5051902;28;20585;-77
2022/06/30 05:39:32;;;;;;;8.25;6.72;;;17.80;99.90;;;;;;5006903;28;20490;-77
2022/06/30 05:42:02;;;;;;;8.30;7.40;;;17.80;99.90;;;;;;5004620;28;20037;-77
2022/06/30 05:44:30;;;;;;;8.90;7.70;;;17.90;99.90;;;;;;5006485;28;20042;-77
2022/06/30 05:46:56;;;;;;;16.00;7.55;;;18.00;99.90;;;;;;5003891;28;20034;-77
2022/06/30 05:49:22;;;;;;;8.23;6.93;;;18.00;99.90;;;;;;5019339;28;20046;-78
2022/06/30 05:51:48;;;;;;;11.77;7.03;;;18.10;99.90;;;;;;5028634;28;20549;-77
2022/06/30 05:54:14;;;;;;;8.40;6.65;;;18.20;99.90;;;;;;5020803;28;20045;-77
2022/06/30 05:56:40;;;;;;;8.18;7.00;;;18.20;99.90;;;;;;5024622;28;20033;-77
2022/06/30 05:59:06;;;;;;;8.32;7.45;;;18.30;99.90;;;;;;5011101;28;20103;-77
2022/06/30 06:01:32;;;;;;;8.60;6.75;;;18.40;99.90;;;;;;5017744;28;20522;-77
2022/06/30 06:03:58;;;;;;;7.60;6.45;;;18.50;99.90;;;;;;5025394;28;20033;-77
2022/06/30 06:06:23;;;;;;;9.10;6.70;;;18.50;99.90;;;;;;5022674;28;20045;-77
2022/06/30 06:08:49;;;;;;;8.20;6.75;;;18.60;99.90;;;;;;5010110;28;20557;-77
2022/06/30 06:11:15;;;;;;;7.28;6.50;;;18.70;99.90;;;;;;5025196;28;20671;-77
2022/06/30 06:13:41;;;;;;;7.90;6.57;;;18.80;99.90;;;;;;5029310;28;20034;-78
2022/06/30 06:16:07;;;;;;;9.30;6.85;;;18.80;99.90;;;;;;4999682;28;20052;-77
2022/06/30 06:18:33;;;;;;;7.97;7.00;;;18.90;99.90;;;;;;5028161;28;20042;-77
2022/06/30 06:20:58;;;;;;;13.10;6.70;;;19.00;99.90;;;;;;5008737;28;20050;-76
2022/06/30 06:23:24;;;;;;;7.15;6.13;;;19.10;99.90;;;;;;5009755;28;20064;-78
2022/06/30 06:25:51;;;;;;;8.55;6.20;;;19.20;99.90;;;;;;5019158;28;20069;-78
2022/06/30 06:31:02;;;;;;;8.48;6.72;;;19.40;99.90;;;;;;5024764;28;20050;-77
2022/06/30 06:33:28;;;;;;;12.52;6.40;;;19.50;99.90;;;;;;5026577;28;20044;-77
2022/06/30 06:35:54;;;;;;;9.73;6.93;;;19.50;99.90;;;;;;5030398;28;20041;-77
2022/06/30 06:38:19;;;;;;;7.72;6.28;;;19.60;99.90;;;;;;5014510;28;20061;-77
2022/06/30 06:40:45;;;;;;;7.82;6.28;;;19.70;99.90;;;;;;5018836;28;20079;-77
2022/06/30 06:43:11;;;;;;;6.82;6.10;;;19.80;99.90;;;;;;5007036;28;20045;-77
2022/06/30 06:45:37;;;;;;;11.23;6.90;;;19.90;99.90;;;;;;5010771;28;20470;-77
2022/06/30 06:48:03;;;;;;;9.27;6.60;;;20.00;99.90;;;;;;5009459;28;20029;-77
2022/06/30 06:50:29;;;;;;;9.27;6.45;;;20.10;99.90;;;;;;5003323;28;20070;-77
2022/06/30 06:52:55;;;;;;;11.15;6.75;;;20.20;99.90;;;;;;4995572;28;20037;-77
2022/06/30 06:55:21;;;;;;;9.20;6.32;;;20.30;99.90;;;;;;5035256;28;20045;-78
2022/06/30 06:57:47;;;;;;;6.53;5.82;;;20.40;99.90;;;;;;5025943;28;20089;-77
2022/06/30 07:00:14;;;;;;;7.47;6.20;;;20.50;99.90;;;;;;4994343;28;20037;-77
2022/06/30 07:02:43;;;;;;;7.70;6.38;;;20.60;99.90;;;;;;5036996;28;20080;-77
2022/06/30 07:05:09;;;;;;;7.28;6.57;;;20.70;99.90;;;;;;5006409;28;20046;-77
2022/06/30 07:07:36;;;;;;;8.13;6.80;;;20.80;99.90;;;;;;5035221;28;20037;-77
2022/06/30 07:10:04;;;;;;;7.40;6.40;;;20.90;99.90;;;;;;5025747;28;20091;-77
2022/06/30 07:12:29;;;;;;;9.35;6.78;;;21.00;99.90;;;;;;5027568;28;20034;-77
2022/06/30 07:14:55;;;;;;;8.90;6.45;;;21.10;99.90;;;;;;5018554;28;20129;-77
2022/06/30 07:17:21;;;;;;;7.43;6.63;;;21.30;99.90;;;;;;5010131;28;20056;-77
2022/06/30 07:19:46;;;;;;;7.78;6.75;;;21.40;99.90;;;;;;5017104;28;20407;-77
2022/06/30 07:22:12;;;;;;;11.80;6.43;;;21.50;99.90;;;;;;5028077;28;20552;-76
2022/06/30 07:24:38;;;;;;;8.15;6.50;;;21.70;99.90;;;;;;5007707;28;20832;-77
2022/06/30 07:27:04;;;;;;;7.38;6.68;;;21.80;99.90;;;;;;5018179;28;20045;-77
2022/06/30 07:29:30;;;;;;;7.85;7.05;;;21.90;99.90;;;;;;5000766;28;20034;-76
2022/06/30 07:31:57;;;;;;;8.57;6.93;;;22.10;99.90;;;;;;5022577;28;20165;-77
2022/06/30 07:34:23;;;;;;;9.90;6.47;;;22.20;99.90;;;;;;5014300;28;20034;-77
2022/06/30 07:36:49;;;;;;;12.10;7.10;;;22.20;99.90;;;;;;5009455;28;20450;-77
2022/06/30 07:39:14;;;;;;;7.32;6.22;;;22.30;99.90;;;;;;5041804;28;20080;-78
2022/06/30 07:41:40;;;;;;;8.52;7.20;;;22.40;99.90;;;;;;5013166;28;20042;-77
2022/06/30 07:44:06;;;;;;;9.57;7.13;;;22.50;99.90;;;;;;5029193;28;20037;-77
2022/06/30 07:46:32;;;;;;;8.63;6.78;;;22.60;99.90;;;;;;5012348;28;20045;-77
2022/06/30 07:48:57;;;;;;;8.90;6.30;;;22.80;99.90;;;;;;5012873;28;20037;-77
2022/06/30 07:51:23;;;;;;;8.55;6.88;;;22.90;99.90;;;;;;4996575;28;20128;-78
2022/06/30 07:53:49;;;;;;;8.40;5.85;;;23.00;99.90;;;;;;5003959;28;20045;-77
2022/06/30 07:56:16;;;;;;;7.95;7.15;;;23.10;99.90;;;;;;5029653;28;20038;-78
2022/06/30 07:58:43;;;;;;;9.02;7.22;;;23.20;99.90;;;;;;5015795;28;20042;-77
2022/06/30 08:01:08;;;;;;;9.43;6.90;;;23.30;99.90;;;;;;5018158;28;20041;-77
2022/06/30 08:03:34;;;;;;;9.23;6.57;;;23.40;99.90;;;;;;5018518;28;20084;-77
2022/06/30 08:06:00;;;;;;;7.95;6.55;;;23.50;99.90;;;;;;5023640;28;20091;-79
2022/06/30 08:08:26;;;;;;;8.90;6.93;;;23.60;99.90;;;;;;5011770;28;20037;-77
2022/06/30 08:10:53;;;;;;;8.85;6.50;;;23.70;99.90;;;;;;5032945;28;20042;-78
2022/06/30 08:13:22;;;;;;;8.20;6.43;;;23.80;99.90;;;;;;5022166;28;20060;-77
2022/06/30 08:15:48;;;;;;;10.32;7.13;;;23.90;99.90;;;;;;5023217;28;20437;-78
2022/06/30 08:18:14;;;;;;;8.60;7.70;;;24.10;99.90;;;;;;4999690;28;20483;-77
2022/06/30 08:20:39;;;;;;;9.65;6.75;;;24.20;99.90;;;;;;5016133;28;20045;-77
2022/06/30 08:23:05;;;;;;;7.93;7.13;;;24.30;99.90;;;;;;5034826;28;20094;-78
2022/06/30 08:25:31;;;;;;;10.40;6.68;;;24.50;99.90;;;;;;5026916;28;20391;-78
2022/06/30 08:27:57;;;;;;;8.82;7.28;;;24.60;99.90;;;;;;5012248;28;20478;-79
2022/06/30 08:30:23;;;;;;;9.68;6.80;;;24.60;99.90;;;;;;5019294;28;20037;-77
2022/06/30 08:32:49;;;;;;;11.90;8.18;;;24.80;99.90;;;;;;5003214;28;20499;-77
2022/06/30 08:35:15;;;;;;;8.40;7.57;;;24.90;99.90;;;;;;5026154;28;20048;-77
2022/06/30 08:37:41;;;;;;;9.57;8.15;;;24.90;99.90;;;;;;5006253;28;20064;-76
2022/06/30 08:42:52;;;;;;;10.20;7.90;;;25.10;99.90;;;;;;5032028;28;20487;-77
2022/06/30 08:45:19;;;;;;;8.77;7.72;;;25.20;99.90;;;;;;5028814;28;20040;-77
2022/06/30 08:47:48;;;;;;;9.73;8.48;;;25.30;99.90;;;;;;5025670;28;20402;-77
2022/06/30 08:50:16;;;;;;;9.13;8.15;;;25.30;99.90;;;;;;5034056;28;20048;-77
2022/06/30 08:52:54;;;;;;;13.25;7.60;;;25.40;99.90;;;;;;4989027;28;20032;-77
2022/06/30 08:55:29;;;;;;;9.23;7.75;;;25.50;99.90;;;;;;5029752;28;20095;-77
2022/06/30 08:58:05;;;;;;;9.98;7.82;;;25.60;99.90;;;;;;5014685;28;20052;-76
2022/06/30 09:00:32;;;;;;;9.10;8.10;;;25.80;99.90;;;;;;5054187;28;20047;-76
2022/06/30 09:02:58;;;;;;;10.73;8.65;;;25.90;99.90;;;;;;5012168;28;20056;-77
2022/06/30 09:05:24;;;;;;;9.10;8.18;;;25.90;99.90;;;;;;5036155;28;20498;-77
2022/06/30 09:07:49;;;;;;;9.55;8.23;;;26.00;99.90;;;;;;5041063;28;20037;-77
2022/06/30 09:10:15;;;;;;;10.55;9.38;;;26.00;99.90;;;;;;5030035;28;20396;-76
2022/06/30 09:12:56;;;;;;;9.82;8.82;;;26.10;99.90;;;;;;5027366;28;20080;-77
2022/06/30 09:15:21;;;;;;;13.82;9.93;;;26.20;99.90;;;;;;5042386;28;20088;-77
2022/06/30 09:17:47;;;;;;;11.40;8.60;;;26.30;99.90;;;;;;5028624;28;20453;-77
2022/06/30 09:20:14;;;;;;;10.68;9.15;;;26.50;99.90;;;;;;5021395;28;20041;-77
2022/06/30 09:22:41;;;;;;;10.95;9.30;;;26.70;99.90;;;;;;5005196;28;20069;-77
2022/06/30 09:25:12;;;;;;;9.30;8.50;;;26.80;99.90;;;;;;5039143;28;20048;-77
2022/06/30 09:27:40;;;;;;;10.98;9.15;;;27.00;99.90;;;;;;5039423;28;20340;-77
2022/06/30 09:30:10;;;;;;;10.82;9.73;;;27.00;99.90;;;;;;5004632;28;20033;-77
2022/06/30 09:32:45;;;;;;;10.75;9.65;;;27.00;99.90;;;;;;5039949;28;20491;-77
2022/06/30 09:35:12;;;;;;;18.55;9.63;;;27.00;99.90;;;;;;5026667;28;20465;-77
2022/06/30 09:37:38;;;;;;;10.43;9.32;;;27.00;99.90;;;;;;5011169;28;20049;-76
2022/06/30 09:40:07;;;;;;;10.75;9.65;;;27.00;99.90;;;;;;4997328;28;20046;-77
2022/06/30 09:42:38;;;;;;;11.40;10.20;;;27.10;99.90;;;;;;5040316;28;20041;-78
2022/06/30 09:45:28;;;;;;;10.63;9.60;;;27.20;99.90;;;;;;5021503;28;20042;-77
2022/06/30 09:47:55;;;;;;;14.73;12.25;;;27.30;99.90;;;;;;5019716;28;20364;-77
2022/06/30 09:50:22;;;;;;;11.77;10.57;;;27.40;99.90;;;;;;5041198;28;20044;-77
2022/06/30 09:53:05;;;;;;;11.20;10.10;;;27.50;99.90;;;;;;5040057;28;20033;-77
2022/06/30 09:55:41;;;;;;;10.63;9.63;;;27.60;99.90;;;;;;5022740;28;20083;-78
2022/06/30 09:58:07;;;;;;;11.93;10.40;;;27.70;99.90;;;;;;5031244;28;20056;-77
2022/06/30 10:00:48;;;;;;;15.90;11.52;;;27.80;99.90;;;;;;5027447;28;20080;-72
2022/06/30 10:03:16;;;;;;;10.70;9.60;;;27.90;99.90;;;;;;5058359;28;20044;-77
2022/06/30 10:05:49;;;;;;;11.07;9.65;;;27.90;99.90;;;;;;5017300;28;20160;-78
2022/06/30 10:08:18;;;;;;;10.82;9.27;;;28.00;99.90;;;;;;5032292;28;20576;-78
2022/06/30 10:10:44;;;;;;;11.48;10.20;;;28.10;99.90;;;;;;5014585;28;20037;-77
2022/06/30 10:13:14;;;;;;;11.82;9.55;;;28.20;99.90;;;;;;5032061;28;20025;-73
2022/06/30 10:15:41;;;;;;;11.85;10.75;;;28.30;99.90;;;;;;5042003;28;20045;-77
2022/06/30 10:18:08;;;;;;;11.00;10.00;;;28.10;99.90;;;;;;5015286;28;20052;-78
2022/06/30 10:20:38;;;;;;;10.65;9.55;;;28.00;99.90;;;;;;4994437;28;20046;-78
2022/06/30 10:23:13;;;;;;;10.32;9.27;;;27.90;99.90;;;;;;5029002;28;20084;-73
2022/06/30 10:25:58;;;;;;;10.55;9.45;;;27.80;99.90;;;;;;5018486;28;20398;-78
2022/06/30 10:28:25;;;;;;;11.57;10.30;;;27.80;99.90;;;;;;5030746;28;20048;-78
2022/06/30 10:31:01;;;;;;;12.07;10.68;;;27.70;99.90;;;;;;5021275;28;20124;-77
2022/06/30 10:33:33;;;;;;;10.95;9.95;;;27.50;99.90;;;;;;5014633;28;20404;-77
2022/06/30 10:36:16;;;;;;;9.80;8.88;;;27.50;99.90;;;;;;5017610;28;20110;-72
2022/06/30 10:38:53;;;;;;;11.23;9.98;;;27.40;99.90;;;;;;5024434;28;20049;-77
2022/06/30 10:41:22;;;;;;;10.90;9.80;;;27.70;99.90;;;;;;5039145;28;20037;-78
2022/06/30 10:44:08;;;;;;;12.68;9.63;;;27.70;99.90;;;;;;5008322;28;20053;-77
2022/06/30 10:46:52;;;;;;;11.40;8.98;;;27.50;99.90;;;;;;5024909;28;20091;-77
2022/06/30 10:49:23;;;;;;;12.77;9.85;;;27.40;99.90;;;;;;5014057;28;20057;-72
2022/06/30 10:51:49;;;;;;;11.80;10.63;;;27.30;99.90;;;;;;5004854;28;20092;-71
2022/06/30 10:54:33;;;;;;;13.88;9.90;;;27.10;99.90;;;;;;5016263;28;20041;-77
2022/06/30 10:57:06;;;;;;;12.13;9.45;;;26.90;99.90;;;;;;5024243;28;20029;-77
2022/06/30 10:59:36;;;;;;;10.90;9.80;;;26.90;99.90;;;;;;5006116;28;20118;-72
2022/06/30 11:02:08;;;;;;;11.85;10.65;;;26.80;99.90;;;;;;5027013;28;20033;-77
2022/06/30 11:05:20;;;;;;;10.60;9.50;;;26.70;99.90;;;;;;5017044;28;20054;-77
2022/06/30 11:07:46;;;;;;;11.70;10.27;;;26.70;99.90;;;;;;5005996;28;20099;-72
2022/06/30 11:10:33;;;;;;;11.95;10.75;;;26.60;99.90;;;;;;4992903;28;20045;-78
2022/06/30 11:12:59;;;;;;;10.73;9.63;;;26.60;99.90;;;;;;5009884;28;20034;-77
2022/06/30 11:15:55;;;;;;;15.35;10.15;;;26.60;99.90;;;;;;5028754;28;20095;-73
2022/06/30 11:18:23;;;;;;;10.75;9.32;;;26.70;99.90;;;;;;5026849;28;20612;-77
2022/06/30 11:20:49;;;;;;;12.25;8.75;;;27.00;99.90;;;;;;5031286;28;20608;-77
2022/06/30 11:23:17;;;;;;;9.57;8.48;;;27.10;99.90;;;;;;5006793;28;20062;-78
2022/06/30 11:28:30;;;;;;;9.15;8.30;;;27.40;99.90;;;;;;5031177;28;20047;-78
2022/06/30 11:30:56;;;;;;;10.25;8.48;;;27.50;99.90;;;;;;5023958;28;20482;-77
2022/06/30 11:33:22;;;;;;;10.02;9.05;;;27.70;99.90;;;;;;5037446;28;20064;-77
2022/06/30 11:36:00;;;;;;;9.32;8.48;;;27.90;99.90;;;;;;5040393;28;20052;-78
2022/06/30 11:38:26;;;;;;;12.73;9.00;;;28.10;99.90;;;;;;5043260;28;20044;-78
2022/06/30 11:41:54;;;;;;;10.20;8.57;;;28.30;99.90;;;;;;5020987;28;20143;-78
2022/06/30 11:43:50;;;;;;;8.43;7.40;;;28.50;99.80;;;;;;5036248;28;20048;-78
2022/06/30 11:46:19;;;;;;;8.52;7.15;;;28.70;99.50;;;;;;5033204;28;20049;-79
2022/06/30 11:48:45;;;;;;;7.68;6.97;;;28.90;99.00;;;;;;5013310;28;20045;-78
2022/06/30 11:51:17;;;;;;;10.90;7.32;;;29.10;99.10;;;;;;5006702;28;20522;-78
2022/06/30 11:53:44;;;;;;;8.95;8.02;;;29.40;99.10;;;;;;4999407;28;20048;-78
2022/06/30 11:56:11;;;;;;;8.32;6.53;;;29.60;99.00;;;;;;4999170;28;20089;-78
2022/06/30 11:58:38;;;;;;;7.95;5.57;;;29.70;98.20;;;;;;5016793;28;20092;-77
2022/06/30 12:01:14;;;;;;;5.45;4.90;;;29.70;97.50;;;;;;5032781;28;20038;-78
2022/06/30 12:03:43;;;;;;;5.50;5.00;;;29.60;95.90;;;;;;5048713;28;20045;-79
2022/06/30 12:06:10;;;;;;;5.47;4.60;;;29.50;96.40;;;;;;5007915;28;20672;-78
2022/06/30 12:08:36;;;;;;;5.25;4.75;;;29.50;96.60;;;;;;5020204;28;20029;-77
2022/06/30 12:11:01;;;;;;;7.45;5.50;;;29.50;95.70;;;;;;5008418;28;20553;-78
2022/06/30 12:13:27;;;;;;;9.48;4.93;;;29.70;95.30;;;;;;4994899;28;20048;-78
2022/06/30 12:15:55;;;;;;;8.20;4.75;;;29.80;94.90;;;;;;5014546;28;20048;-79
2022/06/30 12:18:24;;;;;;;5.63;4.55;;;29.80;94.60;;;;;;5030975;28;20546;-79
2022/06/30 12:20:50;;;;;;;5.22;4.55;;;29.80;94.30;;;;;;5027538;28;20128;-78
2022/06/30 12:23:16;;;;;;;6.57;4.25;;;29.90;94.20;;;;;;5018470;28;20124;-79
2022/06/30 12:25:42;;;;;;;5.93;4.50;;;30.10;93.70;;;;;;5020812;28;20645;-78
2022/06/30 12:28:07;;;;;;;7.65;4.13;;;30.00;92.90;;;;;;5030774;28;20045;-79
2022/06/30 12:30:36;;;;;;;5.05;3.83;;;29.90;93.00;;;;;;5017879;28;20061;-79
2022/06/30 12:33:05;;;;;;;5.53;3.70;;;30.00;92.60;;;;;;5026871;28;20046;-78
2022/06/30 12:35:34;;;;;;;5.70;4.07;;;30.00;92.70;;;;;;5027569;28;20037;-79
2022/06/30 12:38:16;;;;;;;4.75;4.10;;;30.10;92.20;;;;;;5024979;28;20061;-80
2022/06/30 12:40:42;;;;;;;7.90;3.75;;;30.00;91.60;;;;;;5019540;28;20073;-79
2022/06/30 12:43:08;;;;;;;5.03;4.00;;;29.80;91.60;;;;;;5002159;28;20087;-79
2022/06/30 12:45:54;;;;;;;6.75;3.80;;;29.60;92.00;;;;;;5034718;28;20091;-79
2022/06/30 12:48:44;;;;;;;6.80;4.03;;;29.60;92.40;;;;;;5003587;28;20042;-79
2022/06/30 12:51:16;;;;;;;7.93;4.20;;;29.80;92.40;;;;;;5007413;28;20408;-79
2022/06/30 12:53:42;;;;;;;5.65;3.97;;;29.90;91.70;;;;;;5038043;28;20447;-79
2022/06/30 12:56:17;;;;;;;4.97;3.50;;;29.80;91.00;;;;;;5025571;28;20041;-79
2022/06/30 12:58:49;;;;;;;6.50;3.60;;;29.80;89.20;;;;;;5024398;28;20048;-79
2022/06/30 13:01:26;;;;;;;5.22;3.70;;;29.70;90.40;;;;;;5036159;28;20088;-78
2022/06/30 13:04:04;;;;;;;5.65;3.63;;;29.50;90.80;;;;;;5023940;28;20062;-79
2022/06/30 13:06:43;;;;;;;5.88;3.55;;;29.40;91.00;;;;;;5032338;28;20067;-79
2022/06/30 13:09:11;;;;;;;6.50;3.70;;;29.30;90.20;;;;;;5008237;28;20946;-79